Time;durP1;ratioP1;P1;durP2;ratioP2;P2;SDS_P1;SDS_P2;PMS_P1;PMS_P2;Temp;Humidity;BMP_temperature;BMP_pressure;BME280_temperature;BME280_humidity;BME280_pressure;Samples;Min_cycle;Max_cycle;Signal;HPM_P1;HPM_P2
2022/10/09 00:01:21;;;;;;;7.68;5.18;;;7.90;99.90;;;;;;5059455;28;20032;-31
2022/10/09 00:03:49;;;;;;;10.57;5.97;;;7.90;99.90;;;;;;5069596;28;20032;-32
2022/10/09 00:06:18;;;;;;;7.70;5.15;;;7.80;99.90;;;;;;5065631;28;20094;-30
2022/10/09 00:08:44;;;;;;;8.98;5.18;;;7.80;99.90;;;;;;5061418;28;20032;-31
2022/10/09 00:11:14;;;;;;;9.90;5.07;;;7.80;99.90;;;;;;5070668;28;20032;-32
2022/10/09 00:13:40;;;;;;;12.15;6.43;;;7.80;99.90;;;;;;5062060;28;20028;-33
2022/10/09 00:16:10;;;;;;;9.10;5.50;;;7.80;99.90;;;;;;5069629;28;20036;-31
2022/10/09 00:18:36;;;;;;;14.05;5.78;;;7.70;99.90;;;;;;5078593;28;20644;-33
2022/10/09 00:21:03;;;;;;;10.82;6.00;;;7.70;99.90;;;;;;5073439;28;20044;-30
2022/10/09 00:23:28;;;;;;;8.60;6.05;;;7.70;99.90;;;;;;5061089;28;20492;-32
2022/10/09 00:25:57;;;;;;;10.57;6.35;;;7.70;99.90;;;;;;5071931;28;20071;-31
2022/10/09 00:28:25;;;;;;;14.73;5.10;;;7.60;99.90;;;;;;5071711;28;20033;-31
2022/10/09 00:30:51;;;;;;;9.73;5.72;;;7.60;99.90;;;;;;5065730;28;20043;-30
2022/10/09 00:33:17;;;;;;;9.30;5.88;;;7.60;99.90;;;;;;5071900;28;20056;-32
2022/10/09 00:35:43;;;;;;;10.15;5.32;;;7.60;99.90;;;;;;5073757;28;20054;-31
2022/10/09 00:38:09;;;;;;;11.73;5.88;;;7.50;99.90;;;;;;5071292;28;20040;-33
2022/10/09 00:40:36;;;;;;;6.18;5.10;;;7.50;99.90;;;;;;5082190;28;20119;-32
2022/10/09 00:43:03;;;;;;;7.50;5.55;;;7.40;99.90;;;;;;5069850;28;20063;-32
2022/10/09 00:45:30;;;;;;;9.30;5.43;;;7.40;99.90;;;;;;5065324;28;20039;-32
2022/10/09 00:48:05;;;;;;;8.40;5.22;;;7.40;99.90;;;;;;5067220;28;20093;-31
2022/10/09 00:50:48;;;;;;;7.95;5.13;;;7.30;99.90;;;;;;5066049;28;20037;-34
2022/10/09 00:53:17;;;;;;;8.60;5.30;;;7.30;99.90;;;;;;5061297;28;20032;-33
2022/10/09 00:55:42;;;;;;;9.35;5.80;;;7.20;99.90;;;;;;5056451;28;20032;-34
2022/10/09 00:58:11;;;;;;;6.45;5.10;;;7.20;99.90;;;;;;5063826;28;20119;-32
2022/10/09 01:00:36;;;;;;;8.65;5.53;;;7.20;99.90;;;;;;5068010;28;20040;-32
2022/10/09 01:03:02;;;;;;;7.60;5.00;;;7.20;99.90;;;;;;5072757;28;20036;-30
2022/10/09 01:06:12;;;;;;;8.13;4.85;;;7.10;99.90;;;;;;5069134;28;20041;-33
2022/10/09 01:08:54;;;;;;;10.48;5.20;;;7.10;99.90;;;;;;4984832;28;20056;-32
2022/10/09 01:11:26;;;;;;;6.90;5.28;;;7.00;99.90;;;;;;5072997;28;20431;-33
2022/10/09 01:14:13;;;;;;;9.43;5.15;;;7.00;99.90;;;;;;5064357;28;20036;-32
2022/10/09 01:17:08;;;;;;;10.27;6.00;;;6.90;99.90;;;;;;5057277;28;20028;-32
2022/10/09 01:19:45;;;;;;;11.40;6.15;;;6.90;99.90;;;;;;5067647;28;20036;-32
2022/10/09 01:22:23;;;;;;;7.28;5.60;;;6.90;99.90;;;;;;5069783;28;20028;-33
2022/10/09 01:25:06;;;;;;;7.80;5.38;;;6.90;99.90;;;;;;5067021;28;20047;-31
2022/10/09 01:27:34;;;;;;;6.78;5.20;;;6.90;99.90;;;;;;5067072;28;20094;-32
2022/10/09 01:30:04;;;;;;;14.50;5.85;;;6.90;99.90;;;;;;5070834;28;20032;-31
2022/10/09 01:32:33;;;;;;;8.18;5.90;;;6.80;99.90;;;;;;5071440;28;20455;-32
2022/10/09 01:35:00;;;;;;;11.27;6.20;;;6.80;99.90;;;;;;5066411;28;20471;-34
2022/10/09 01:37:29;;;;;;;12.45;6.93;;;6.80;99.90;;;;;;5067305;28;20036;-33
2022/10/09 01:39:56;;;;;;;9.73;6.32;;;6.90;99.90;;;;;;5057943;28;20481;-31
2022/10/09 01:42:25;;;;;;;8.90;6.03;;;6.80;99.90;;;;;;5070955;28;20035;-31
2022/10/09 01:44:50;;;;;;;12.15;6.63;;;6.80;99.90;;;;;;5064387;28;20044;-32
2022/10/09 01:47:18;;;;;;;10.68;5.97;;;6.80;99.90;;;;;;5081857;28;20062;-31
2022/10/09 01:50:08;;;;;;;12.18;6.57;;;6.80;99.90;;;;;;5063854;28;20486;-33
2022/10/09 01:52:45;;;;;;;9.43;5.95;;;6.80;99.90;;;;;;5072607;28;20401;-37
2022/10/09 01:55:17;;;;;;;8.45;5.85;;;6.80;99.90;;;;;;5068991;28;20081;-32
2022/10/09 01:58:10;;;;;;;9.05;5.40;;;6.70;99.90;;;;;;5065901;28;20115;-35
2022/10/09 02:00:40;;;;;;;12.57;6.43;;;6.70;99.90;;;;;;5051935;28;20040;-30
2022/10/09 02:03:10;;;;;;;10.93;6.55;;;6.70;99.90;;;;;;5068250;28;20077;-33
2022/10/09 02:05:37;;;;;;;10.43;6.38;;;6.60;99.90;;;;;;5064693;28;20032;-32
2022/10/09 02:08:03;;;;;;;10.82;6.20;;;6.70;99.90;;;;;;5044010;28;20041;-32
2022/10/09 02:10:31;;;;;;;9.48;6.50;;;6.70;99.90;;;;;;5066420;28;20119;-31
2022/10/09 02:12:59;;;;;;;11.57;6.57;;;6.70;99.90;;;;;;5061686;28;20037;-33
2022/10/09 02:15:36;;;;;;;9.65;6.45;;;6.70;99.90;;;;;;5063987;28;20036;-32
2022/10/09 02:18:08;;;;;;;7.80;6.50;;;6.70;99.90;;;;;;5072062;28;20111;-32
2022/10/09 02:20:38;;;;;;;11.50;6.03;;;6.70;99.90;;;;;;5062330;28;20036;-32
2022/10/09 02:23:07;;;;;;;10.05;6.20;;;6.70;99.90;;;;;;5062556;28;20119;-34
2022/10/09 02:25:34;;;;;;;12.77;7.15;;;6.70;99.90;;;;;;5067353;28;20047;-32
2022/10/09 02:28:01;;;;;;;10.05;5.90;;;6.70;99.90;;;;;;5076252;28;20040;-31
2022/10/09 02:30:33;;;;;;;7.72;5.85;;;6.60;99.90;;;;;;5067609;28;20067;-33
2022/10/09 02:32:58;;;;;;;7.60;6.38;;;6.60;99.90;;;;;;5071067;28;20036;-32
2022/10/09 02:35:24;;;;;;;9.30;6.40;;;6.60;99.90;;;;;;5068319;28;20509;-33
2022/10/09 02:37:50;;;;;;;10.15;5.63;;;6.60;99.90;;;;;;5073817;28;20036;-33
2022/10/09 02:40:16;;;;;;;7.90;5.63;;;6.50;99.90;;;;;;5093581;28;20028;-31
2022/10/09 02:42:41;;;;;;;9.75;6.68;;;6.50;99.90;;;;;;5070916;28;20047;-32
2022/10/09 02:45:08;;;;;;;10.15;6.97;;;6.50;99.90;;;;;;5093709;28;20114;-32
2022/10/09 02:47:34;;;;;;;7.88;6.05;;;6.40;99.90;;;;;;5067414;28;20068;-36
2022/10/09 02:49:59;;;;;;;8.10;6.07;;;6.50;99.90;;;;;;5059091;28;20354;-31
2022/10/09 02:52:25;;;;;;;7.97;5.95;;;6.50;99.90;;;;;;5064762;28;20058;-33
2022/10/09 02:54:51;;;;;;;6.40;5.72;;;6.50;99.90;;;;;;5073832;28;20043;-30
2022/10/09 02:57:16;;;;;;;8.13;5.80;;;6.40;99.90;;;;;;5074990;28;20036;-34
2022/10/09 02:59:42;;;;;;;9.20;5.88;;;6.40;99.90;;;;;;5068397;28;20497;-30
2022/10/09 03:02:08;;;;;;;9.32;6.18;;;6.40;99.90;;;;;;5064762;28;20051;-32
2022/10/09 03:04:33;;;;;;;7.43;6.25;;;6.40;99.90;;;;;;5071827;28;20033;-32
2022/10/09 03:06:59;;;;;;;11.68;6.38;;;6.30;99.90;;;;;;5068638;28;20093;-33
2022/10/09 03:09:25;;;;;;;7.22;6.07;;;6.30;99.90;;;;;;5060137;28;20037;-30
2022/10/09 03:11:50;;;;;;;8.90;5.63;;;6.30;99.90;;;;;;5066025;28;20072;-31
2022/10/09 03:14:16;;;;;;;8.57;5.93;;;6.30;99.90;;;;;;5052903;28;20104;-29
2022/10/09 03:16:42;;;;;;;8.10;5.22;;;6.30;99.90;;;;;;5053426;28;20032;-31
2022/10/09 03:19:08;;;;;;;8.65;5.57;;;6.20;99.90;;;;;;5065935;28;20440;-33
2022/10/09 03:21:34;;;;;;;9.40;5.85;;;6.20;99.90;;;;;;5074651;28;20032;-30
2022/10/09 03:23:59;;;;;;;7.03;6.13;;;6.10;99.90;;;;;;5072687;28;20039;-31
2022/10/09 03:26:26;;;;;;;7.72;5.85;;;6.10;99.90;;;;;;5073972;28;20508;-32
2022/10/09 03:28:53;;;;;;;8.48;6.07;;;6.00;99.90;;;;;;5068992;28;20064;-30
2022/10/09 03:31:21;;;;;;;6.88;6.18;;;6.00;99.90;;;;;;5069064;28;20089;-31
2022/10/09 03:33:47;;;;;;;8.05;6.22;;;6.00;99.90;;;;;;5060218;28;20032;-32
2022/10/09 03:36:12;;;;;;;7.55;5.78;;;6.00;99.90;;;;;;5064000;28;20032;-31
2022/10/09 03:38:39;;;;;;;9.10;5.80;;;5.90;99.90;;;;;;5062618;28;20045;-31
2022/10/09 03:41:05;;;;;;;7.82;6.38;;;5.80;99.90;;;;;;5072233;28;20040;-32
2022/10/09 03:43:32;;;;;;;10.48;7.32;;;5.80;99.90;;;;;;5068768;28;20378;-31
2022/10/09 03:45:58;;;;;;;7.30;5.85;;;5.80;99.90;;;;;;5075671;28;20069;-31
2022/10/09 03:48:24;;;;;;;8.68;6.15;;;5.80;99.90;;;;;;5075045;28;20119;-31
2022/10/09 03:50:50;;;;;;;7.70;5.93;;;5.70;99.90;;;;;;5075510;28;20127;-30
2022/10/09 03:53:16;;;;;;;11.82;7.22;;;5.70;99.90;;;;;;5075568;28;20152;-31
2022/10/09 03:55:43;;;;;;;8.93;6.07;;;5.80;99.90;;;;;;5075544;28;20118;-29
2022/10/09 03:58:09;;;;;;;9.73;7.05;;;5.80;99.90;;;;;;5069450;28;20036;-34
2022/10/09 04:00:35;;;;;;;7.50;6.20;;;5.70;99.90;;;;;;5075335;28;20101;-35
2022/10/09 04:03:01;;;;;;;7.20;5.65;;;5.70;99.90;;;;;;5058476;28;20047;-31
2022/10/09 04:05:26;;;;;;;7.53;6.72;;;5.70;99.90;;;;;;5067395;28;20036;-32
2022/10/09 04:07:52;;;;;;;8.07;7.13;;;5.70;99.90;;;;;;5058869;28;20478;-30
2022/10/09 04:10:18;;;;;;;8.25;6.72;;;5.70;99.90;;;;;;5074705;28;20040;-31
2022/10/09 04:12:44;;;;;;;11.10;7.40;;;5.70;99.90;;;;;;5070829;28;20043;-31
2022/10/09 04:15:10;;;;;;;8.63;6.15;;;5.70;99.90;;;;;;5074099;28;20039;-34
2022/10/09 04:17:36;;;;;;;8.82;7.43;;;5.70;99.90;;;;;;5057691;28;20040;-32
2022/10/09 04:20:02;;;;;;;8.20;6.65;;;5.60;99.90;;;;;;5067214;28;20490;-30
2022/10/09 04:22:27;;;;;;;8.75;6.40;;;5.60;99.90;;;;;;5065235;28;20101;-34
2022/10/09 04:24:53;;;;;;;7.70;6.50;;;5.60;99.90;;;;;;5069869;28;20119;-31
2022/10/09 04:27:19;;;;;;;12.32;7.15;;;5.60;99.90;;;;;;5072403;28;20036;-35
2022/10/09 04:29:45;;;;;;;10.40;7.35;;;5.60;99.90;;;;;;5049022;28;20036;-30
2022/10/09 04:32:11;;;;;;;9.02;7.30;;;5.70;99.90;;;;;;5067770;28;20092;-29
2022/10/09 04:34:36;;;;;;;9.18;7.30;;;5.70;99.90;;;;;;5057492;28;20048;-32
2022/10/09 04:37:02;;;;;;;8.95;7.07;;;5.70;99.90;;;;;;5065801;28;20115;-30
2022/10/09 04:39:28;;;;;;;9.25;8.23;;;5.70;99.90;;;;;;5061379;28;20107;-33
2022/10/09 04:41:54;;;;;;;9.48;7.00;;;5.70;99.90;;;;;;5064089;28;20362;-33
2022/10/09 04:44:19;;;;;;;8.85;7.90;;;5.70;99.90;;;;;;5073394;28;20089;-31
2022/10/09 04:46:48;;;;;;;10.80;8.30;;;5.70;99.90;;;;;;5066061;28;20043;-30
2022/10/09 04:49:14;;;;;;;9.52;7.95;;;5.70;99.90;;;;;;5090516;28;20024;-30
2022/10/09 04:51:40;;;;;;;10.05;7.32;;;5.80;99.90;;;;;;5053078;28;20032;-30
2022/10/09 04:54:06;;;;;;;10.40;8.40;;;5.70;99.90;;;;;;5066281;28;20040;-31
2022/10/09 04:56:32;;;;;;;10.68;8.63;;;5.70;99.90;;;;;;5071964;28;20028;-32
2022/10/09 04:58:58;;;;;;;9.18;7.93;;;5.70;99.90;;;;;;5070263;28;20048;-30
2022/10/09 05:01:26;;;;;;;11.45;8.00;;;5.70;99.90;;;;;;5059362;28;20036;-33
2022/10/09 05:03:52;;;;;;;10.20;8.27;;;5.70;99.90;;;;;;5070578;28;20109;-29
2022/10/09 05:06:20;;;;;;;13.88;11.90;;;5.70;99.90;;;;;;5068252;28;20446;-32
2022/10/09 05:08:46;;;;;;;16.95;15.05;;;5.60;99.90;;;;;;5053683;28;20493;-29
2022/10/09 05:11:15;;;;;;;14.77;12.48;;;5.60;99.90;;;;;;5071762;28;20032;-29
2022/10/09 05:13:44;;;;;;;12.30;10.02;;;5.60;99.90;;;;;;5071090;28;20043;-32
2022/10/09 05:16:13;;;;;;;10.82;8.70;;;5.60;99.90;;;;;;5071460;28;20491;-33
2022/10/09 05:18:44;;;;;;;10.50;8.00;;;5.60;99.90;;;;;;5063927;28;20036;-30
2022/10/09 05:21:10;;;;;;;9.35;7.63;;;5.60;99.90;;;;;;5068310;28;20385;-31
2022/10/09 05:23:36;;;;;;;9.05;8.25;;;5.50;99.90;;;;;;5073567;28;20579;-34
2022/10/09 05:26:05;;;;;;;9.90;7.97;;;5.60;99.90;;;;;;5067159;28;20048;-31
2022/10/09 05:28:31;;;;;;;10.02;8.18;;;5.50;99.90;;;;;;5065693;28;20044;-30
2022/10/09 05:30:57;;;;;;;10.98;8.32;;;5.50;99.90;;;;;;5056683;28;20085;-33
2022/10/09 05:33:23;;;;;;;9.75;8.68;;;5.50;99.90;;;;;;5061493;28;20036;-33
2022/10/09 05:35:54;;;;;;;9.70;8.80;;;5.50;99.90;;;;;;5067227;28;20036;-31
2022/10/09 05:38:21;;;;;;;9.50;8.15;;;5.40;99.90;;;;;;5073173;28;20032;-31
2022/10/09 05:40:57;;;;;;;8.73;7.93;;;5.40;99.90;;;;;;5064122;28;20518;-30
2022/10/09 05:43:34;;;;;;;9.13;8.23;;;5.40;99.90;;;;;;5067969;28;20036;-31
2022/10/09 05:46:08;;;;;;;10.82;9.43;;;5.30;99.90;;;;;;5077031;28;20559;-32
2022/10/09 05:48:34;;;;;;;14.25;12.80;;;5.30;99.90;;;;;;5082217;28;20059;-32
2022/10/09 05:51:10;;;;;;;14.30;12.43;;;5.20;99.90;;;;;;5076966;28;20036;-32
2022/10/09 05:53:37;;;;;;;14.80;12.50;;;5.20;99.90;;;;;;5070325;28;20050;-30
2022/10/09 05:56:19;;;;;;;13.80;12.35;;;5.10;99.90;;;;;;5072509;28;20067;-30
2022/10/09 05:58:50;;;;;;;12.68;10.00;;;5.10;99.90;;;;;;5065220;28;20121;-34
2022/10/09 06:01:15;;;;;;;11.13;9.95;;;5.00;99.90;;;;;;5069096;28;20083;-33
2022/10/09 06:03:41;;;;;;;8.80;7.05;;;5.00;99.90;;;;;;5063055;28;20486;-31
2022/10/09 06:06:07;;;;;;;9.00;6.43;;;5.00;99.90;;;;;;5040084;28;20044;-32
2022/10/09 06:08:36;;;;;;;12.98;6.70;;;5.00;99.90;;;;;;5071038;28;20032;-35
2022/10/09 06:11:17;;;;;;;6.15;5.30;;;5.00;99.90;;;;;;5056738;28;20098;-33
2022/10/09 06:13:44;;;;;;;6.55;5.95;;;5.00;99.90;;;;;;5070665;28;20027;-32
2022/10/09 06:16:11;;;;;;;5.47;4.97;;;5.00;99.90;;;;;;5072942;28;20398;-32
2022/10/09 06:18:38;;;;;;;5.38;4.88;;;5.00;99.90;;;;;;5057346;28;20036;-30
2022/10/09 06:21:04;;;;;;;6.65;5.95;;;4.90;99.90;;;;;;5076244;28;20039;-31
2022/10/09 06:23:31;;;;;;;5.05;4.55;;;5.00;99.90;;;;;;5074370;28;20052;-33
2022/10/09 06:26:04;;;;;;;6.38;5.47;;;4.90;99.90;;;;;;5069253;28;20044;-32
2022/10/09 06:28:31;;;;;;;;;;;4.90;99.90;;;;;;5072469;28;20377;-29
2022/10/09 06:31:01;;;;;;;6.20;5.60;;;4.90;99.90;;;;;;5074233;28;19916;-32
2022/10/09 06:33:35;;;;;;;7.40;5.78;;;4.90;99.90;;;;;;5076246;28;20036;-32
2022/10/09 06:36:09;;;;;;;8.30;5.63;;;4.90;99.90;;;;;;5066514;28;20111;-31
2022/10/09 06:38:36;;;;;;;6.38;5.78;;;5.00;99.90;;;;;;5055972;28;20063;-33
2022/10/09 06:41:04;;;;;;;6.20;5.60;;;5.00;99.90;;;;;;5069975;28;20032;-34
2022/10/09 06:43:29;;;;;;;9.20;6.80;;;5.00;99.90;;;;;;5077208;28;20982;-32
2022/10/09 06:45:58;;;;;;;9.77;7.63;;;5.10;99.90;;;;;;5069568;28;20128;-32
2022/10/09 06:48:24;;;;;;;7.75;6.20;;;5.20;99.90;;;;;;5068116;28;20131;-31
2022/10/09 06:50:50;;;;;;;6.55;5.95;;;5.20;99.90;;;;;;5072438;28;20115;-34
2022/10/09 06:53:16;;;;;;;10.10;6.40;;;5.30;99.90;;;;;;5067064;28;20032;-32
2022/10/09 06:55:52;;;;;;;9.45;6.93;;;5.30;99.90;;;;;;5072955;28;20123;-33
2022/10/09 06:58:18;;;;;;;7.88;7.07;;;5.30;99.90;;;;;;5075488;28;20085;-33
2022/10/09 07:00:44;;;;;;;7.30;6.60;;;5.40;99.90;;;;;;5067240;28;20036;-32
2022/10/09 07:03:10;;;;;;;12.48;10.98;;;5.40;99.90;;;;;;5063837;28;20063;-36
2022/10/09 07:05:37;;;;;;;10.57;8.48;;;5.50;99.90;;;;;;5067415;28;20051;-34
2022/10/09 07:08:03;;;;;;;9.73;8.55;;;5.60;99.90;;;;;;5071136;28;20097;-30
2022/10/09 07:10:28;;;;;;;12.73;11.18;;;5.70;99.90;;;;;;5074663;28;20307;-31
2022/10/09 07:12:54;;;;;;;13.85;12.45;;;5.70;99.90;;;;;;5074177;28;20446;-32
2022/10/09 07:15:20;;;;;;;14.80;11.25;;;5.90;99.90;;;;;;5072550;28;20066;-34
2022/10/09 07:17:46;;;;;;;18.05;13.95;;;6.00;99.90;;;;;;5075975;28;20374;-32
2022/10/09 07:20:11;;;;;;;11.98;10.77;;;6.00;99.90;;;;;;5067491;28;20043;-31
2022/10/09 07:22:37;;;;;;;18.67;12.52;;;6.10;99.90;;;;;;5063660;28;20276;-33
2022/10/09 07:25:04;;;;;;;16.30;13.85;;;6.20;99.90;;;;;;5074747;28;20042;-34
2022/10/09 07:27:29;;;;;;;21.30;15.98;;;6.20;99.90;;;;;;5066129;28;20119;-32
2022/10/09 07:29:59;;;;;;;18.17;15.38;;;6.40;99.90;;;;;;5069241;28;20479;-31
2022/10/09 07:32:26;;;;;;;21.23;15.30;;;6.50;99.90;;;;;;5071152;28;20032;-32
2022/10/09 07:34:52;;;;;;;21.50;14.43;;;6.70;99.90;;;;;;5070172;28;20047;-31
2022/10/09 07:37:17;;;;;;;17.65;15.32;;;6.80;99.90;;;;;;5084966;28;20131;-32
2022/10/09 07:39:43;;;;;;;15.85;14.15;;;6.90;99.90;;;;;;5063725;28;20047;-31
2022/10/09 07:42:09;;;;;;;21.23;15.32;;;7.10;99.90;;;;;;5074823;28;20459;-32
2022/10/09 07:44:35;;;;;;;21.48;16.83;;;7.30;99.90;;;;;;5073578;28;20040;-32
2022/10/09 07:47:00;;;;;;;21.35;17.25;;;7.50;99.90;;;;;;5067417;28;20500;-30
2022/10/09 07:49:26;;;;;;;20.92;17.23;;;7.80;99.90;;;;;;5073270;28;20032;-33
2022/10/09 07:51:52;;;;;;;22.52;17.80;;;8.00;99.90;;;;;;5074728;28;20036;-34
2022/10/09 07:54:18;;;;;;;18.90;15.80;;;8.40;99.90;;;;;;5067871;28;20067;-32
2022/10/09 07:56:43;;;;;;;16.38;14.07;;;8.80;99.90;;;;;;5068239;28;20036;-35
2022/10/09 07:59:14;;;;;;;17.92;13.23;;;9.30;99.90;;;;;;5062374;28;20455;-33
2022/10/09 08:01:40;;;;;;;14.20;12.15;;;9.80;99.90;;;;;;5066587;28;20039;-32
2022/10/09 08:04:06;;;;;;;14.60;13.05;;;10.20;99.90;;;;;;5073768;28;20044;-35
2022/10/09 08:06:33;;;;;;;13.15;11.75;;;10.70;99.90;;;;;;5070992;28;20036;-33
2022/10/09 08:09:01;;;;;;;15.55;12.07;;;11.10;99.90;;;;;;5073765;28;20071;-32
2022/10/09 08:11:28;;;;;;;15.23;12.32;;;11.50;99.90;;;;;;5057350;28;20123;-33
2022/10/09 08:13:54;;;;;;;14.13;11.48;;;11.80;99.90;;;;;;5074233;28;20116;-34
2022/10/09 08:16:21;;;;;;;17.10;12.13;;;12.10;99.90;;;;;;5074107;28;20036;-34
2022/10/09 08:18:48;;;;;;;14.57;12.20;;;12.40;99.90;;;;;;5060707;28;20123;-35
2022/10/09 08:21:15;;;;;;;14.00;11.85;;;12.80;99.90;;;;;;5071292;28;20047;-35
2022/10/09 08:23:42;;;;;;;14.20;11.93;;;13.20;99.90;;;;;;5067944;28;20055;-31
2022/10/09 08:26:28;;;;;;;15.43;11.48;;;13.50;99.90;;;;;;5064006;28;20496;-32
2022/10/09 08:29:02;;;;;;;14.38;10.60;;;13.70;99.90;;;;;;5054184;28;20044;-32
2022/10/09 08:31:30;;;;;;;14.38;10.25;;;13.90;99.90;;;;;;5071991;28;20044;-33
2022/10/09 08:33:58;;;;;;;13.13;9.05;;;14.20;99.90;;;;;;5065301;28;20040;-33
2022/10/09 08:36:24;;;;;;;13.23;11.52;;;14.50;99.90;;;;;;5048806;28;20040;-36
2022/10/09 08:38:50;;;;;;;13.07;10.55;;;14.80;99.90;;;;;;5074300;28;20066;-33
2022/10/09 08:41:40;;;;;;;11.25;9.98;;;15.00;99.90;;;;;;5068660;28;20039;-34
2022/10/09 08:44:21;;;;;;;12.55;9.48;;;15.20;99.90;;;;;;5070344;28;20129;-35
2022/10/09 08:47:23;;;;;;;12.57;9.27;;;15.50;99.90;;;;;;5062990;28;20036;-35
2022/10/09 08:49:58;;;;;;;10.63;8.43;;;15.70;99.90;;;;;;5056201;28;20044;-35
2022/10/09 08:52:46;;;;;;;9.90;8.90;;;16.00;99.90;;;;;;5073333;28;20109;-34
2022/10/09 08:55:23;;;;;;;10.77;8.98;;;16.00;99.90;;;;;;5070391;28;20040;-33
2022/10/09 08:57:52;;;;;;;11.23;8.57;;;16.20;99.90;;;;;;5065732;28;20101;-34
2022/10/09 09:00:20;;;;;;;11.15;8.07;;;16.50;99.90;;;;;;5071850;28;20043;-32
2022/10/09 09:03:11;;;;;;;8.38;6.90;;;16.70;99.90;;;;;;5063914;28;20039;-31
2022/10/09 09:06:07;;;;;;;8.73;6.97;;;16.90;99.90;;;;;;5057070;28;20417;-34
2022/10/09 09:08:46;;;;;;;10.68;6.90;;;17.30;99.90;;;;;;5067509;28;20075;-35
2022/10/09 09:11:23;;;;;;;7.97;6.10;;;17.50;99.90;;;;;;5061805;28;20431;-32
2022/10/09 09:13:48;;;;;;;8.45;5.97;;;17.60;99.90;;;;;;5055160;28;20379;-35
2022/10/09 09:16:25;;;;;;;10.05;6.65;;;17.80;99.90;;;;;;5060872;28;20043;-33
2022/10/09 09:19:20;;;;;;;10.30;5.82;;;18.00;99.90;;;;;;5036976;28;20051;-33
2022/10/09 09:21:51;;;;;;;8.75;5.90;;;17.80;99.90;;;;;;5067739;28;20036;-34
2022/10/09 09:24:44;;;;;;;8.90;5.25;;;18.00;99.90;;;;;;5061724;28;20116;-33
2022/10/09 09:27:13;;;;;;;8.55;5.20;;;18.10;99.90;;;;;;5062366;28;20046;-34
2022/10/09 09:29:44;;;;;;;9.77;5.28;;;18.40;99.90;;;;;;5068737;28;20036;-33
2022/10/09 09:32:20;;;;;;;8.52;4.80;;;18.70;99.90;;;;;;5066274;28;20036;-34
2022/10/09 09:34:46;;;;;;;7.28;4.85;;;18.70;99.90;;;;;;5067749;28;20032;-34
2022/10/09 09:37:12;;;;;;;8.25;4.70;;;18.90;99.90;;;;;;5069559;28;20397;-33
2022/10/09 09:39:39;;;;;;;10.93;5.10;;;18.90;99.90;;;;;;5072476;28;20064;-34
2022/10/09 09:42:08;;;;;;;9.68;4.80;;;19.00;99.90;;;;;;5073327;28;20535;-34
2022/10/09 09:44:38;;;;;;;6.88;4.28;;;18.90;99.90;;;;;;5052025;28;20032;-34
2022/10/09 09:47:16;;;;;;;7.65;4.40;;;18.90;99.90;;;;;;5064598;28;20032;-34
2022/10/09 09:49:59;;;;;;;6.22;4.57;;;19.30;99.90;;;;;;5066045;28;20050;-34
2022/10/09 09:52:30;;;;;;;6.85;3.90;;;19.70;99.90;;;;;;5070404;28;20123;-34
2022/10/09 09:54:57;;;;;;;6.72;3.95;;;19.90;99.90;;;;;;5058798;28;20090;-33
2022/10/09 09:57:44;;;;;;;7.80;3.72;;;20.20;99.90;;;;;;5067486;28;20043;-32
2022/10/09 10:00:15;;;;;;;10.00;4.60;;;20.60;97.10;;;;;;5061113;28;20079;-32
2022/10/09 10:02:41;;;;;;;7.63;4.50;;;20.60;99.90;;;;;;5067148;28;20059;-34
2022/10/09 10:05:35;;;;;;;6.22;3.50;;;20.80;99.90;;;;;;5064562;28;20489;-33
2022/10/09 10:08:28;;;;;;;7.63;3.83;;;21.00;94.20;;;;;;5061793;28;20048;-33
2022/10/09 10:10:57;;;;;;;7.45;4.43;;;21.40;95.10;;;;;;5059555;28;20400;-33
2022/10/09 10:13:34;;;;;;;6.68;3.60;;;21.70;83.20;;;;;;5070825;28;20535;-34
2022/10/09 10:16:00;;;;;;;7.68;3.80;;;21.80;85.20;;;;;;5071333;28;20040;-35
2022/10/09 10:18:31;;;;;;;5.43;3.55;;;21.70;94.20;;;;;;5061890;28;20039;-36
2022/10/09 10:21:11;;;;;;;8.95;4.38;;;21.50;93.00;;;;;;5055992;28;20072;-34
2022/10/09 10:24:00;;;;;;;6.53;3.58;;;21.40;84.00;;;;;;5075345;28;20043;-33
2022/10/09 10:26:35;;;;;;;7.93;3.75;;;21.40;89.50;;;;;;5052370;28;20047;-35
2022/10/09 10:29:13;;;;;;;7.55;3.08;;;21.80;80.10;;;;;;5068522;28;20047;-33
2022/10/09 10:32:00;;;;;;;6.03;3.70;;;22.00;77.30;;;;;;5065730;28;20036;-33
2022/10/09 10:34:36;;;;;;;7.78;3.97;;;22.10;67.40;;;;;;5064554;28;20032;-36
2022/10/09 10:37:14;;;;;;;9.32;4.13;;;22.20;69.80;;;;;;5071022;28;20032;-34
2022/10/09 10:40:09;;;;;;;8.02;4.47;;;22.20;66.60;;;;;;5070489;28;20439;-33
2022/10/09 10:43:10;;;;;;;7.82;4.55;;;21.90;74.40;;;;;;5062670;28;20474;-30
2022/10/09 10:46:10;;;;;;;7.95;4.95;;;22.20;70.80;;;;;;5071360;28;20042;-34
2022/10/09 10:48:46;;;;;;;8.00;4.60;;;22.10;67.80;;;;;;5067916;28;20085;-34
2022/10/09 10:51:24;;;;;;;8.10;4.32;;;21.90;66.30;;;;;;5065867;28;20031;-32
2022/10/09 10:54:04;;;;;;;7.20;4.30;;;22.00;68.20;;;;;;5058229;28;20047;-31
2022/10/09 10:56:34;;;;;;;7.95;4.90;;;22.20;58.00;;;;;;5069400;28;20040;-34
2022/10/09 10:59:30;;;;;;;8.40;5.30;;;22.40;64.40;;;;;;5081776;28;20129;-32
2022/10/09 11:02:37;;;;;;;7.07;4.40;;;22.60;61.90;;;;;;5063858;28;20383;-32
2022/10/09 11:05:26;;;;;;;6.68;3.85;;;22.90;58.10;;;;;;4991682;28;20052;-34
2022/10/09 11:08:12;;;;;;;6.70;3.85;;;22.70;58.80;;;;;;5060433;28;20055;-31
2022/10/09 11:10:52;;;;;;;4.93;3.00;;;22.50;56.80;;;;;;5062746;28;20059;-33
2022/10/09 11:13:47;;;;;;;6.15;3.95;;;22.50;56.70;;;;;;5067891;28;20094;-33
2022/10/09 11:16:22;;;;;;;10.35;4.20;;;22.50;52.20;;;;;;5033340;28;20044;-32
2022/10/09 11:19:18;;;;;;;8.38;4.10;;;22.40;55.40;;;;;;5070129;28;20050;-31
2022/10/09 11:22:06;;;;;;;8.27;4.75;;;22.20;54.90;;;;;;5064996;28;21162;-31
2022/10/09 11:25:01;;;;;;;10.68;4.15;;;22.30;55.80;;;;;;5067547;28;20047;-31
2022/10/09 11:27:33;;;;;;;6.78;3.10;;;22.40;52.90;;;;;;5085216;28;20139;-33
2022/10/09 11:30:07;;;;;;;5.28;3.10;;;22.40;52.20;;;;;;5073320;28;20036;-35
2022/10/09 11:32:58;;;;;;;5.50;2.95;;;22.70;51.40;;;;;;5071702;28;20438;-33
2022/10/09 11:35:30;;;;;;;6.60;3.15;;;23.00;50.00;;;;;;5036050;28;20036;-33
2022/10/09 11:38:00;;;;;;;6.88;3.28;;;23.40;52.10;;;;;;5069359;28;20044;-33
2022/10/09 11:40:35;;;;;;;7.50;3.22;;;24.10;50.30;;;;;;5066128;28;20119;-37
2022/10/09 11:43:25;;;;;;;8.30;3.10;;;24.20;48.80;;;;;;5067229;28;20130;-33
2022/10/09 11:46:02;;;;;;;4.82;3.17;;;24.70;48.40;;;;;;5070823;28;20647;-34
2022/10/09 11:48:31;;;;;;;5.95;3.33;;;24.90;47.40;;;;;;5080169;28;20076;-35
2022/10/09 11:51:07;;;;;;;5.28;3.58;;;25.10;47.90;;;;;;5073978;28;20457;-34
2022/10/09 11:53:35;;;;;;;4.30;2.42;;;25.00;48.40;;;;;;5068474;28;20118;-35
2022/10/09 11:56:25;;;;;;;5.55;2.83;;;24.70;47.80;;;;;;5072383;28;20043;-37
2022/10/09 11:59:03;;;;;;;7.70;2.80;;;24.10;44.60;;;;;;5064559;28;20397;-34
2022/10/09 12:01:47;;;;;;;6.03;2.90;;;23.60;46.20;;;;;;5053647;28;20134;-35
2022/10/09 12:04:14;;;;;;;5.43;2.80;;;23.20;48.00;;;;;;5064303;28;20384;-35
2022/10/09 12:06:48;;;;;;;7.57;2.80;;;23.20;49.00;;;;;;5060351;28;20042;-35
2022/10/09 12:09:27;;;;;;;4.50;2.83;;;23.80;47.60;;;;;;5064435;28;20063;-36
2022/10/09 12:12:00;;;;;;;6.00;3.00;;;24.50;47.10;;;;;;5063397;28;20155;-33
2022/10/09 12:14:28;;;;;;;5.78;2.88;;;25.20;45.90;;;;;;5063543;28;20039;-33
2022/10/09 12:16:55;;;;;;;6.40;3.20;;;25.20;44.70;;;;;;5063680;28;20439;-37
2022/10/09 12:19:29;;;;;;;6.35;3.00;;;25.60;44.30;;;;;;5068613;28;20123;-34
2022/10/09 12:22:06;;;;;;;6.80;3.67;;;26.10;44.40;;;;;;5065746;28;20097;-34
2022/10/09 12:24:38;;;;;;;6.55;3.30;;;26.40;43.60;;;;;;5060589;28;20062;-36
2022/10/09 12:27:04;;;;;;;6.72;3.13;;;26.40;43.00;;;;;;5084861;28;20040;-36
2022/10/09 12:29:46;;;;;;;6.38;2.95;;;26.90;43.20;;;;;;5061806;28;20040;-35
2022/10/09 12:32:22;;;;;;;5.30;2.63;;;27.10;42.40;;;;;;5068036;28;20067;-34
2022/10/09 12:34:50;;;;;;;4.93;2.55;;;27.20;41.90;;;;;;5061581;28;20035;-35
2022/10/09 12:37:19;;;;;;;4.57;2.58;;;27.00;41.30;;;;;;5064574;28;20100;-34
2022/10/09 12:39:46;;;;;;;7.63;3.17;;;27.00;42.30;;;;;;5066556;28;20085;-37
2022/10/09 12:42:17;;;;;;;6.45;2.92;;;27.10;41.60;;;;;;5064799;28;20036;-34
2022/10/09 12:44:45;;;;;;;5.60;3.03;;;27.50;41.20;;;;;;5064645;28;20032;-36
2022/10/09 12:47:25;;;;;;;7.10;3.00;;;27.60;41.40;;;;;;5067390;28;20079;-35
2022/10/09 12:50:00;;;;;;;4.85;2.47;;;27.40;40.80;;;;;;5066003;28;20043;-35
2022/10/09 12:52:27;;;;;;;8.10;2.85;;;26.80;40.60;;;;;;5060820;28;20044;-33
2022/10/09 12:54:53;;;;;;;4.40;2.53;;;26.80;41.10;;;;;;5062850;28;20094;-35
2022/10/09 12:57:19;;;;;;;5.50;2.45;;;27.00;41.70;;;;;;5056060;28;20040;-34
2022/10/09 12:59:46;;;;;;;5.07;2.83;;;27.30;41.00;;;;;;5057967;28;20115;-36
2022/10/09 13:02:17;;;;;;;5.95;2.50;;;27.30;40.70;;;;;;5073597;28;20032;-36
2022/10/09 13:04:55;;;;;;;4.85;2.30;;;27.20;40.40;;;;;;5068114;28;20043;-35
2022/10/09 13:07:24;;;;;;;5.63;2.38;;;27.50;40.30;;;;;;5060375;28;20504;-36
2022/10/09 13:09:57;;;;;;;5.55;2.40;;;27.50;40.10;;;;;;5074402;28;20040;-34